createdAt,value
2023-03-12T00:01:46.498Z,10.20
2023-03-12T00:06:47.970Z,8.50
2023-03-12T00:11:49.510Z,8.70
2023-03-12T00:16:50.979Z,10.40
2023-03-12T00:21:52.470Z,11.60
2023-03-12T00:26:53.947Z,9.20
2023-03-12T00:31:55.450Z,7.50
2023-03-12T00:36:56.912Z,11.20
2023-03-12T00:41:58.505Z,9.60
2023-03-12T00:47:00.229Z,13.50
2023-03-12T00:52:01.963Z,12.60
2023-03-12T00:57:03.950Z,13.50
2023-03-12T01:02:08.236Z,16.80
2023-03-12T01:07:09.750Z,12.20
2023-03-12T01:12:11.782Z,12.10
2023-03-12T01:17:13.305Z,14.00
2023-03-12T01:22:14.827Z,11.50
2023-03-12T01:27:16.544Z,11.50
2023-03-12T01:32:18.191Z,16.00
2023-03-12T01:37:19.696Z,11.90
2023-03-12T01:42:21.702Z,8.50
2023-03-12T01:47:23.835Z,14.30
2023-03-12T01:52:31.914Z,13.50
2023-03-12T01:57:41.996Z,14.30
2023-03-12T02:02:45.078Z,14.60
2023-03-12T02:07:47.276Z,13.20
2023-03-12T02:12:49.165Z,11.70
2023-03-12T02:17:50.647Z,10.50
2023-03-12T02:23:17.164Z,12.40
2023-03-12T02:28:23.620Z,11.30
2023-03-12T02:33:25.964Z,12.60
2023-03-12T02:38:44.313Z,11.00
2023-03-12T02:43:50.091Z,11.60
2023-03-12T02:48:53.754Z,10.90
2023-03-12T02:53:55.260Z,10.30
2023-03-12T02:58:56.830Z,11.90
2023-03-12T03:03:58.736Z,10.60
2023-03-12T03:09:00.222Z,10.50
2023-03-12T03:14:04.385Z,10.10
2023-03-12T03:19:06.137Z,8.50
2023-03-12T03:24:08.064Z,7.50
2023-03-12T03:29:09.677Z,8.90
2023-03-12T03:34:12.953Z,9.60
2023-03-12T03:39:14.464Z,9.40
2023-03-12T03:44:15.928Z,10.80
2023-03-12T03:49:17.784Z,7.70
2023-03-12T03:54:19.965Z,6.00
2023-03-12T03:59:21.430Z,6.90
2023-03-12T04:04:22.986Z,8.90
2023-03-12T04:09:24.457Z,6.80
2023-03-12T04:14:25.935Z,7.50
2023-03-12T04:19:27.443Z,6.00
2023-03-12T04:24:29.276Z,5.60
2023-03-12T04:29:30.798Z,11.20
2023-03-12T04:34:32.438Z,7.70
2023-03-12T04:39:34.234Z,8.20
2023-03-12T04:44:36.356Z,8.90
2023-03-12T04:49:39.740Z,6.60
2023-03-12T04:54:41.202Z,7.40
2023-03-12T04:59:42.869Z,9.50
2023-03-12T05:04:44.411Z,9.90
2023-03-12T05:09:46.435Z,9.50
2023-03-12T05:14:48.018Z,7.90
2023-03-12T05:19:49.500Z,6.50
2023-03-12T05:24:51.239Z,8.00
2023-03-12T05:29:53.314Z,7.30
2023-03-12T05:34:55.193Z,6.30
2023-03-12T05:39:56.684Z,7.90
2023-03-12T05:44:59.399Z,8.30
2023-03-12T05:50:00.861Z,9.60
2023-03-12T05:55:02.368Z,9.30
2023-03-12T06:00:05.427Z,6.10
2023-03-12T06:05:09.249Z,5.00
2023-03-12T06:10:11.575Z,5.70
2023-03-12T06:15:13.131Z,7.10
2023-03-12T06:20:15.072Z,6.90
2023-03-12T06:25:16.612Z,8.70
2023-03-12T06:30:18.279Z,7.50
2023-03-12T06:35:20.166Z,6.50
2023-03-12T06:40:21.863Z,4.90
2023-03-12T06:45:23.476Z,6.80
2023-03-12T06:50:25.316Z,4.90
2023-03-12T06:55:26.774Z,4.30
2023-03-12T07:00:28.563Z,5.20
2023-03-12T07:05:31.389Z,4.60
2023-03-12T07:10:32.880Z,4.20
2023-03-12T07:15:35.272Z,4.00
2023-03-12T07:20:39.772Z,4.30
2023-03-12T07:25:43.402Z,6.30
2023-03-12T07:30:50.288Z,7.10
2023-03-12T07:35:52.246Z,6.00
2023-03-12T07:40:56.146Z,6.40
2023-03-12T07:45:57.796Z,5.10
2023-03-12T07:50:59.644Z,5.70
2023-03-12T07:56:01.235Z,6.20
2023-03-12T08:01:03.396Z,3.50
2023-03-12T08:06:06.236Z,8.30
2023-03-12T08:11:09.354Z,7.20
2023-03-12T08:16:11.209Z,5.00
2023-03-12T08:21:16.343Z,8.00
2023-03-12T08:26:18.084Z,7.30
2023-03-12T08:31:19.868Z,4.10
2023-03-12T08:36:22.596Z,3.80
2023-03-12T08:41:24.961Z,3.90
2023-03-12T08:46:26.573Z,3.80
2023-03-12T08:51:36.822Z,7.50
2023-03-12T08:56:42.480Z,4.90
2023-03-12T09:01:44.586Z,6.00
2023-03-12T09:06:46.273Z,4.70
2023-03-12T09:11:48.037Z,6.20
2023-03-12T09:16:50.214Z,4.30
2023-03-12T09:21:52.197Z,5.70
2023-03-12T09:26:53.741Z,4.60
2023-03-12T09:31:55.533Z,3.30
2023-03-12T09:36:57.327Z,4.00
2023-03-12T09:41:59.119Z,7.50
2023-03-12T09:47:05.863Z,4.20
2023-03-12T09:52:36.050Z,5.10
2023-03-12T09:57:37.902Z,4.90
2023-03-12T10:02:51.560Z,5.80
2023-03-12T10:08:07.587Z,4.90
2023-03-12T10:13:43.529Z,5.30
2023-03-12T10:18:53.762Z,3.80
2023-03-12T10:23:55.431Z,4.90
2023-03-12T10:29:27.398Z,6.80
2023-03-12T10:34:43.175Z,5.20
2023-03-12T10:39:45.040Z,5.60
2023-03-12T10:44:56.330Z,2.90
2023-03-12T10:50:19.802Z,1.90
2023-03-12T10:55:29.617Z,3.40
2023-03-12T11:00:32.491Z,5.20
2023-03-12T11:05:48.954Z,3.80
2023-03-12T11:10:50.654Z,3.00
2023-03-12T11:15:53.122Z,2.60
2023-03-12T11:21:13.524Z,2.60
2023-03-12T11:26:21.173Z,3.70
2023-03-12T11:31:30.575Z,3.10
2023-03-12T11:36:49.892Z,2.30
2023-03-12T11:42:00.222Z,2.90
2023-03-12T11:47:28.567Z,4.20
2023-03-12T11:53:07.239Z,3.20
2023-03-12T11:58:38.685Z,3.30
2023-03-12T12:03:58.970Z,3.80
2023-03-12T12:09:19.171Z,2.60
2023-03-12T12:14:58.736Z,3.10
2023-03-12T12:20:10.251Z,2.50
2023-03-12T12:25:47.058Z,3.40
2023-03-12T12:31:40.495Z,3.70
2023-03-12T12:36:47.924Z,4.40
2023-03-12T12:41:57.490Z,4.80
2023-03-12T12:47:03.819Z,5.10
2023-03-12T12:52:08.985Z,3.20
2023-03-12T12:57:45.683Z,4.90
2023-03-12T13:02:48.185Z,3.80
2023-03-12T13:07:51.777Z,2.50
2023-03-12T13:12:56.180Z,4.80
2023-03-12T13:18:03.443Z,3.90
2023-03-12T13:23:24.494Z,5.90
2023-03-12T13:28:26.362Z,3.00
2023-03-12T13:33:48.818Z,4.80
2023-03-12T13:38:59.084Z,5.40
2023-03-12T13:44:20.968Z,4.40
2023-03-12T13:49:23.192Z,4.10
2023-03-12T13:54:29.751Z,3.70
2023-03-12T13:59:32.624Z,2.40
2023-03-12T14:04:39.104Z,5.60
2023-03-12T14:09:59.382Z,6.50
2023-03-12T14:15:12.252Z,5.20
2023-03-12T14:20:19.342Z,6.60
2023-03-12T14:25:47.131Z,8.00
2023-03-12T14:30:57.379Z,8.10
2023-03-12T14:36:15.710Z,5.30
2023-03-12T14:41:34.038Z,4.10
2023-03-12T14:46:35.628Z,5.10
2023-03-12T14:51:37.315Z,6.50
2023-03-12T14:56:43.350Z,4.10
2023-03-12T15:01:45.839Z,4.20
2023-03-12T15:06:50.624Z,2.50
2023-03-12T15:11:57.967Z,4.10
2023-03-12T15:17:00.604Z,5.70
2023-03-12T15:22:04.464Z,4.00
2023-03-12T15:27:25.122Z,6.30
2023-03-12T15:32:29.753Z,5.30
2023-03-12T15:37:41.186Z,5.90
2023-03-12T15:42:46.053Z,8.30
2023-03-12T15:47:48.593Z,6.30
2023-03-12T15:52:51.347Z,5.30
2023-03-12T15:57:55.098Z,6.20
2023-03-12T16:03:06.026Z,8.60
2023-03-12T16:08:29.655Z,10.50
2023-03-12T16:13:32.307Z,8.60
2023-03-12T16:18:33.961Z,5.20
2023-03-12T16:23:35.949Z,4.50
2023-03-12T16:28:38.128Z,5.90
2023-03-12T16:33:40.297Z,5.20
2023-03-12T16:38:43.675Z,4.70
2023-03-12T16:50:59.064Z,5.50
2023-03-12T16:56:02.487Z,7.60
2023-03-12T17:01:05.441Z,11.00
2023-03-12T17:06:08.437Z,19.70
2023-03-12T17:11:38.038Z,26.40
2023-03-12T17:16:39.731Z,25.50
2023-03-12T17:21:42.027Z,23.70
2023-03-12T17:26:45.624Z,24.60
2023-03-12T17:31:50.434Z,30.60
2023-03-12T17:36:52.118Z,29.10
2023-03-12T17:41:53.926Z,33.00
2023-03-12T17:46:59.644Z,25.00
2023-03-12T17:52:03.409Z,27.60
2023-03-12T17:57:08.414Z,21.90
2023-03-12T18:02:14.650Z,23.70
2023-03-12T18:07:17.219Z,20.20
2023-03-12T18:12:18.968Z,20.30
2023-03-12T18:17:20.927Z,32.10
2023-03-12T18:22:24.574Z,27.50
2023-03-12T18:27:26.614Z,20.10
2023-03-12T18:32:28.293Z,14.80
2023-03-12T18:37:30.226Z,19.00
2023-03-12T18:42:32.392Z,18.50
2023-03-12T18:47:35.052Z,19.50
2023-03-12T18:52:37.013Z,24.90
2023-03-12T18:57:38.503Z,28.60
2023-03-12T19:02:40.810Z,25.80
2023-03-12T19:07:42.560Z,18.90
2023-03-12T19:12:53.766Z,24.60
2023-03-12T19:17:55.722Z,25.60
2023-03-12T19:22:57.472Z,20.10
2023-03-12T19:27:59.036Z,28.90
2023-03-12T19:33:00.936Z,21.20
2023-03-12T19:38:02.459Z,18.40
2023-03-12T19:43:04.141Z,21.80
2023-03-12T19:48:06.123Z,25.20
2023-03-12T19:53:07.689Z,27.30
2023-03-12T19:58:09.288Z,25.20
2023-03-12T20:03:10.876Z,25.90
2023-03-12T20:08:12.849Z,21.90
2023-03-12T20:13:17.751Z,23.80
2023-03-12T20:18:19.841Z,21.40
2023-03-12T20:23:21.423Z,25.50
2023-03-12T20:28:23.016Z,23.50
2023-03-12T20:33:24.588Z,23.10
2023-03-12T20:38:26.096Z,32.40
2023-03-12T20:43:27.725Z,30.70
2023-03-12T20:48:29.329Z,40.10
2023-03-12T20:53:30.943Z,55.60
2023-03-12T20:58:32.980Z,46.20
2023-03-12T21:03:34.838Z,65.80
2023-03-12T21:08:36.923Z,87.70
2023-03-12T21:13:38.520Z,136.20
2023-03-12T21:18:40.379Z,79.70
2023-03-12T21:23:42.211Z,210.00
2023-03-12T21:28:44.211Z,261.40
2023-03-12T21:33:45.946Z,120.20
2023-03-12T21:38:47.620Z,110.90
2023-03-12T21:43:49.213Z,281.10
2023-03-12T21:48:51.094Z,150.40
2023-03-12T21:53:54.487Z,148.20
2023-03-12T21:58:57.607Z,147.10
2023-03-12T22:04:01.208Z,121.50
2023-03-12T22:09:02.930Z,83.30
2023-03-12T22:14:04.688Z,37.50
2023-03-12T22:19:07.811Z,76.90
2023-03-12T22:24:10.678Z,60.60
2023-03-12T22:29:12.295Z,74.60
2023-03-12T22:34:13.914Z,75.40
2023-03-12T22:39:17.520Z,42.60
2023-03-12T22:44:19.172Z,39.90
2023-03-12T22:49:21.112Z,42.80
2023-03-12T22:54:22.620Z,29.60
2023-03-12T22:59:24.118Z,27.10
2023-03-12T23:04:26.103Z,26.10
2023-03-12T23:09:27.835Z,35.10
2023-03-12T23:14:29.391Z,18.90
2023-03-12T23:19:34.247Z,17.30
2023-03-12T23:24:36.123Z,19.20
2023-03-12T23:29:37.679Z,22.50
2023-03-12T23:34:39.182Z,33.10
2023-03-12T23:39:53.615Z,23.20
2023-03-12T23:44:56.180Z,29.20
2023-03-12T23:49:57.698Z,22.70
2023-03-12T23:54:59.176Z,26.90
